Time;durP1;ratioP1;P1;durP2;ratioP2;P2;SDS_P1;SDS_P2;PMS_P1;PMS_P2;Temp;Humidity;BMP_temperature;BMP_pressure;BME280_temperature;BME280_humidity;BME280_pressure;Samples;Min_cycle;Max_cycle;Signal;HPM_P1;HPM_P2
2023/06/15 00:00:06;;;;;;;5.93;3.67;;;;;;;15.90;63.71;99779.03;12244822;19;20013;-82
2023/06/15 00:04:12;;;;;;;4.68;3.20;;;;;;;15.88;63.50;99774.88;12242053;19;20022;-80
2023/06/15 00:08:14;;;;;;;6.15;3.35;;;;;;;15.85;63.67;99770.72;12241797;19;20002;-83
2023/06/15 00:12:16;;;;;;;4.18;2.85;;;;;;;15.84;64.69;99779.34;12242211;19;20070;-84
2023/06/15 00:16:18;;;;;;;4.60;3.17;;;;;;;15.82;64.89;99770.47;12242504;19;20010;-82
2023/06/15 00:20:28;;;;;;;3.70;2.80;;;;;;;15.81;64.02;99769.66;12238383;19;20014;-79
2023/06/15 00:24:45;;;;;;;5.57;2.78;;;;;;;15.80;64.77;99769.94;12234241;19;20043;-82
2023/06/15 00:28:47;;;;;;;4.60;2.67;;;;;;;15.77;64.91;99770.53;12237576;19;20002;-84
2023/06/15 00:32:51;;;;;;;4.35;2.85;;;;;;;15.76;65.47;99772.44;12240795;19;20011;-84
2023/06/15 00:36:52;;;;;;;6.18;3.35;;;;;;;15.70;65.21;99768.88;12238441;19;20024;-83
2023/06/15 00:40:54;;;;;;;5.65;3.00;;;;;;;15.66;65.94;99778.03;12236967;19;20370;-83
2023/06/15 00:44:56;;;;;;;5.32;3.47;;;;;;;15.62;66.00;99783.31;12237175;19;20014;-84
2023/06/15 00:48:58;;;;;;;4.22;3.05;;;;;;;15.64;66.42;99783.03;12234607;19;20007;-83
2023/06/15 00:53:03;;;;;;;4.77;3.27;;;;;;;15.60;65.91;99780.00;12234269;19;20014;-83
2023/06/15 00:57:06;;;;;;;3.97;2.85;;;;;;;15.59;66.03;99786.66;12236570;19;20031;-83
2023/06/15 01:01:08;;;;;;;;;;;;;;;15.56;66.17;99790.00;12238325;19;20473;-83
2023/06/15 01:05:10;;;;;;;4.82;2.90;;;;;;;15.56;66.04;99794.75;12239121;19;19935;-81
2023/06/15 01:09:12;;;;;;;4.88;2.90;;;;;;;15.53;66.63;99804.47;12233209;19;20472;-82
2023/06/15 01:13:19;;;;;;;4.35;2.85;;;;;;;15.51;67.05;99792.81;12238774;19;20410;-81
2023/06/15 01:17:23;;;;;;;5.75;3.03;;;;;;;15.45;67.06;99789.22;12236815;19;20058;-81
2023/06/15 01:21:30;;;;;;;4.55;2.90;;;;;;;15.40;68.12;99792.00;12237342;19;20010;-83
2023/06/15 01:25:42;;;;;;;5.90;2.95;;;;;;;15.38;68.71;99796.19;12238017;19;20014;-84
2023/06/15 01:29:44;;;;;;;4.78;2.65;;;;;;;15.34;69.03;99786.75;12236794;19;20010;-81
2023/06/15 01:33:50;;;;;;;3.83;2.85;;;;;;;15.27;69.75;99790.66;12237390;19;20017;-82
2023/06/15 01:37:52;;;;;;;5.10;3.10;;;;;;;15.28;69.76;99788.69;12231983;19;20014;-82
2023/06/15 01:41:55;;;;;;;4.60;3.25;;;;;;;15.26;69.68;99789.00;12228862;19;20437;-82
2023/06/15 01:45:59;;;;;;;4.85;3.30;;;;;;;15.20;70.01;99781.78;12232246;19;20503;-83
2023/06/15 01:50:02;;;;;;;5.38;3.33;;;;;;;15.19;70.46;99785.66;12226617;19;20011;-80
2023/06/15 01:54:04;;;;;;;6.15;3.25;;;;;;;15.14;71.04;99787.63;12236285;19;20014;-82
2023/06/15 01:58:06;;;;;;;6.20;3.15;;;;;;;15.10;71.01;99783.75;12232249;19;20031;-84
2023/06/15 02:02:08;;;;;;;4.57;2.97;;;;;;;15.09;71.26;99779.31;12234613;19;20031;-81
2023/06/15 02:06:10;;;;;;;7.25;3.25;;;;;;;15.06;71.87;99788.22;12233507;19;20082;-82
2023/06/15 02:10:12;;;;;;;5.97;2.88;;;;;;;15.00;72.31;99790.97;12235692;19;20038;-82
2023/06/15 02:14:17;;;;;;;4.75;3.20;;;;;;;14.95;72.33;99804.84;12231966;19;20003;-82
2023/06/15 02:18:21;;;;;;;4.00;2.78;;;;;;;14.87;72.74;99799.84;12229499;19;20006;-84
2023/06/15 02:22:23;;;;;;;4.27;2.83;;;;;;;14.83;73.38;99798.75;12232868;19;20018;-83
2023/06/15 02:26:25;;;;;;;5.75;3.33;;;;;;;14.78;74.91;99801.53;12232047;19;20366;-82
2023/06/15 02:30:27;;;;;;;4.70;3.27;;;;;;;14.70;75.31;99800.16;12233562;19;20010;-81
2023/06/15 02:34:30;;;;;;;5.60;2.83;;;;;;;14.64;75.85;99801.28;12232396;19;20883;-82
2023/06/15 02:38:32;;;;;;;;;;;;;;;14.57;77.17;99797.91;12231692;19;20018;-82
2023/06/15 02:42:35;;;;;;;7.63;3.15;;;;;;;14.54;76.92;99799.31;12226860;19;19907;-82
2023/06/15 02:46:36;;;;;;;7.20;3.35;;;;;;;14.49;77.71;99802.06;12233030;19;20011;-83
2023/06/15 02:50:38;;;;;;;7.72;3.38;;;;;;;14.45;77.85;99805.66;12233562;19;20011;-82
2023/06/15 02:54:47;;;;;;;4.60;2.97;;;;;;;14.40;78.43;99812.03;12231252;19;20010;-83
2023/06/15 02:58:54;;;;;;;5.53;3.20;;;;;;;14.35;79.14;99820.34;12228375;19;20021;-81
2023/06/15 03:03:22;;;;;;;8.10;4.05;;;;;;;14.30;79.75;99817.53;12228548;19;20007;-82
2023/06/15 03:07:25;;;;;;;6.20;3.35;;;;;;;14.28;80.87;99819.78;12228223;19;20011;-83
2023/06/15 03:11:52;;;;;;;3.88;2.88;;;;;;;14.23;82.07;99828.91;12230195;19;20119;-82
2023/06/15 03:16:06;;;;;;;5.88;3.53;;;;;;;14.18;82.50;99837.19;12230770;19;20094;-82
2023/06/15 03:20:10;;;;;;;5.90;3.30;;;;;;;14.10;84.13;99841.34;12229836;19;20654;-82
2023/06/15 03:24:16;;;;;;;5.00;3.28;;;;;;;14.08;85.09;99854.63;12229363;19;20078;-82
2023/06/15 03:28:23;;;;;;;5.60;3.20;;;;;;;14.02;86.04;99852.13;12238853;19;20011;-80
2023/06/15 03:32:27;;;;;;;4.45;3.03;;;;;;;13.98;86.00;99859.28;12243738;19;20413;-81
2023/06/15 03:36:31;;;;;;;5.03;3.13;;;;;;;13.90;86.14;99853.19;12246260;19;20082;-82
2023/06/15 03:40:37;;;;;;;5.88;3.22;;;;;;;13.88;87.03;99849.00;12242584;19;20014;-83
2023/06/15 03:44:39;;;;;;;7.35;3.60;;;;;;;13.86;87.20;99851.22;12241641;19;20013;-84
2023/06/15 03:48:41;;;;;;;5.07;3.33;;;;;;;13.88;86.76;99860.91;12237419;19;20030;-81
2023/06/15 03:52:44;;;;;;;5.55;3.38;;;;;;;13.91;87.02;99867.84;12244281;19;20011;-82
2023/06/15 03:56:45;;;;;;;6.50;4.07;;;;;;;13.96;87.30;99873.44;12242444;19;20038;-81
2023/06/15 04:00:47;;;;;;;4.55;3.30;;;;;;;13.99;87.83;99874.84;12238341;19;20762;-81
2023/06/15 04:04:54;;;;;;;4.90;3.30;;;;;;;14.02;88.15;99874.28;12240858;19;20014;-81
2023/06/15 04:08:58;;;;;;;5.60;3.47;;;;;;;14.03;87.81;99876.78;12238181;19;20015;-82
2023/06/15 04:13:00;;;;;;;7.30;3.33;;;;;;;14.05;87.83;99871.81;12239789;19;20014;-82
2023/06/15 04:17:03;;;;;;;5.32;3.88;;;;;;;14.08;88.68;99870.44;12238633;19;20054;-84
2023/06/15 04:21:05;;;;;;;6.05;3.83;;;;;;;14.14;88.46;99880.44;12240942;19;20011;-82
2023/06/15 04:25:08;;;;;;;4.72;3.20;;;;;;;14.17;89.33;99874.34;12235639;19;20035;-83
2023/06/15 04:29:10;;;;;;;4.95;3.63;;;;;;;14.22;89.25;99882.69;12237119;19;20464;-82
2023/06/15 04:33:16;;;;;;;5.35;3.85;;;;;;;14.29;88.95;99882.41;12239449;19;20096;-85
2023/06/15 04:37:19;;;;;;;5.57;3.40;;;;;;;14.33;89.71;99889.06;12237406;19;20027;-83
2023/06/15 04:41:22;;;;;;;3.63;3.10;;;;;;;14.39;89.05;99898.22;12234565;19;20035;-84
2023/06/15 04:45:29;;;;;;;5.88;3.67;;;;;;;14.44;88.82;99901.84;12239603;19;20453;-80
2023/06/15 04:49:32;;;;;;;5.28;3.50;;;;;;;14.50;88.71;99900.75;12240100;19;20015;-82
2023/06/15 04:53:35;;;;;;;4.68;3.28;;;;;;;14.53;88.76;99896.63;12237808;19;20010;-83
2023/06/15 04:57:38;;;;;;;9.80;3.87;;;;;;;14.57;89.06;99898.59;12235816;19;20006;-83
2023/06/15 05:01:39;;;;;;;4.63;3.17;;;;;;;14.64;89.73;99903.06;12237831;19;20451;-82
2023/06/15 05:05:51;;;;;;;5.45;3.60;;;;;;;14.73;89.77;99904.19;12238448;19;20333;-83
2023/06/15 05:09:53;;;;;;;7.85;4.35;;;;;;;14.81;89.50;99906.38;12238738;19;20010;-82
2023/06/15 05:13:58;;;;;;;5.82;3.85;;;;;;;14.91;88.86;99900.03;12245285;19;20003;-82
2023/06/15 05:18:00;;;;;;;5.90;3.55;;;;;;;14.99;88.40;99896.69;12241869;19;20007;-83
2023/06/15 05:22:02;;;;;;;8.38;3.90;;;;;;;15.06;88.58;99897.25;12237893;19;20028;-84
2023/06/15 05:26:08;;;;;;;6.75;3.58;;;;;;;15.15;88.25;99900.31;12236693;19;20019;-82
2023/06/15 05:30:30;;;;;;;5.78;3.60;;;;;;;15.27;88.07;99898.09;12221983;19;20020;-79
2023/06/15 05:34:32;;;;;;;7.53;4.10;;;;;;;15.36;87.86;99901.97;12200768;19;20402;-80
2023/06/15 05:38:35;;;;;;;7.60;3.70;;;;;;;15.49;87.06;99900.53;12234827;19;20479;-80
2023/06/15 05:42:37;;;;;;;6.20;3.65;;;;;;;15.62;86.71;99899.16;12232567;19;20031;-82
2023/06/15 05:46:39;;;;;;;5.60;3.47;;;;;;;15.75;86.07;99901.38;12242733;19;20024;-81
2023/06/15 05:50:42;;;;;;;5.07;3.33;;;;;;;15.87;85.82;99901.88;12240196;19;20014;-80
2023/06/15 05:54:45;;;;;;;8.37;3.60;;;;;;;16.00;85.21;99900.44;12239525;19;20011;-80
2023/06/15 05:58:48;;;;;;;7.47;3.58;;;;;;;16.15;84.33;99905.09;12235767;19;20038;-80
2023/06/15 06:02:50;;;;;;;6.65;3.70;;;;;;;16.36;83.59;99915.03;12235040;19;20021;-80
2023/06/15 06:07:05;;;;;;;7.33;3.53;;;;;;;16.52;82.75;99917.72;12238102;19;20491;-80
2023/06/15 06:11:09;;;;;;;5.55;3.65;;;;;;;16.68;82.20;99932.38;12242638;19;20066;-81
2023/06/15 06:15:15;;;;;;;5.03;3.60;;;;;;;16.84;80.66;99926.47;12235904;19;20021;-79
2023/06/15 06:19:20;;;;;;;5.80;3.67;;;;;;;17.03;79.79;99929.38;12234643;19;20010;-82
2023/06/15 06:23:23;;;;;;;5.90;4.60;;;;;;;17.17;78.62;99937.91;12232157;19;20015;-81
2023/06/15 06:27:26;;;;;;;7.32;3.88;;;;;;;17.35;77.66;99938.34;12233487;19;20026;-81
2023/06/15 06:31:28;;;;;;;8.50;4.27;;;;;;;17.50;76.88;99939.03;12238535;19;20015;-82
2023/06/15 06:35:30;;;;;;;6.67;3.57;;;;;;;17.69;75.73;99939.09;12238348;19;20014;-83
2023/06/15 06:39:32;;;;;;;5.35;3.90;;;;;;;17.87;75.05;99936.72;12240246;19;20017;-81
2023/06/15 06:43:35;;;;;;;5.70;3.45;;;;;;;18.02;74.93;99947.72;12231124;19;20040;-82
2023/06/15 06:47:39;;;;;;;5.60;3.95;;;;;;;18.19;72.89;99945.28;12236768;19;20460;-82
2023/06/15 06:51:42;;;;;;;;;;;;;;;18.38;71.54;99947.28;12236971;19;20036;-81
2023/06/15 06:55:45;;;;;;;5.88;3.80;;;;;;;18.60;70.63;99955.94;12236771;19;19935;-81
2023/06/15 06:59:47;;;;;;;4.82;3.58;;;;;;;18.87;69.24;99951.69;12230740;19;20480;-80
2023/06/15 07:03:50;;;;;;;6.45;4.20;;;;;;;19.10;67.22;99956.34;12241580;19;20015;-81
2023/06/15 07:07:52;;;;;;;4.85;3.53;;;;;;;19.31;66.13;99954.06;12243352;19;20031;-78
2023/06/15 07:11:55;;;;;;;;;;;;;;;19.59;65.83;99954.16;12247761;19;20053;-79
2023/06/15 07:15:57;;;;;;;6.25;3.28;;;;;;;19.84;63.45;99954.84;12248115;19;19922;-80
2023/06/15 07:19:59;;;;;;;5.65;3.90;;;;;;;20.11;62.75;99954.91;12246914;19;20018;-78
2023/06/15 07:24:02;;;;;;;5.32;3.80;;;;;;;20.42;61.50;99954.28;12244603;19;20021;-79
2023/06/15 07:28:05;;;;;;;;;;;;;;;20.53;60.22;99955.75;12245231;19;20414;-78
2023/06/15 07:32:07;;;;;;;5.95;3.58;;;;;;;20.78;58.94;99957.16;12248372;19;20327;-79
2023/06/15 07:36:11;;;;;;;7.35;4.82;;;;;;;21.03;58.15;99952.09;12246865;19;20018;-79
2023/06/15 07:40:15;;;;;;;5.70;3.65;;;;;;;21.25;56.26;99952.13;12246299;19;20011;-79
2023/06/15 07:44:19;;;;;;;4.65;3.42;;;;;;;21.34;55.86;99955.00;12264692;19;20017;-80
2023/06/15 07:48:21;;;;;;;6.38;3.90;;;;;;;21.59;55.85;99950.75;12275163;19;20021;-79
2023/06/15 07:52:22;;;;;;;4.65;3.50;;;;;;;21.68;55.35;99957.22;12255917;19;20049;-80
2023/06/15 07:56:28;;;;;;;9.50;4.22;;;;;;;21.66;55.44;99958.72;12254535;19;20015;-81
2023/06/15 08:00:30;;;;;;;6.18;3.63;;;;;;;21.85;55.30;99948.91;12246711;19;20009;-80
2023/06/15 08:04:35;;;;;;;4.90;3.83;;;;;;;22.08;54.36;99965.72;12248744;19;20390;-85
2023/06/15 08:08:38;;;;;;;9.23;4.20;;;;;;;22.23;53.81;99968.13;12247233;19;20042;-83
2023/06/15 08:12:42;;;;;;;7.47;4.00;;;;;;;22.39;52.33;99960.06;12250135;19;20095;-84
2023/06/15 08:16:45;;;;;;;4.60;3.55;;;;;;;22.53;52.80;99959.97;12244768;19;20021;-84
2023/06/15 08:20:49;;;;;;;7.90;3.58;;;;;;;22.79;50.30;99951.59;12242815;19;20043;-84
2023/06/15 08:24:51;;;;;;;4.43;3.47;;;;;;;23.06;50.08;99949.66;12236436;19;20007;-83
2023/06/15 08:28:53;;;;;;;8.87;4.13;;;;;;;23.18;49.25;99949.84;12240636;19;20015;-83
2023/06/15 08:33:03;;;;;;;6.22;3.88;;;;;;;23.27;48.67;99949.84;12239989;19;20014;-81
2023/06/15 08:37:08;;;;;;;7.75;3.65;;;;;;;23.49;47.55;99940.38;12238917;19;20023;-84
2023/06/15 08:41:12;;;;;;;6.43;3.58;;;;;;;23.67;47.33;99953.22;12238538;19;20772;-84
2023/06/15 08:45:16;;;;;;;5.35;3.60;;;;;;;23.65;45.23;99949.94;12236440;19;20035;-85
2023/06/15 08:49:18;;;;;;;4.53;3.58;;;;;;;23.76;44.85;99954.06;12235270;19;20013;-84
2023/06/15 08:53:22;;;;;;;4.80;3.08;;;;;;;23.88;42.16;99947.75;12240787;19;20003;-83
2023/06/15 08:57:24;;;;;;;6.57;3.85;;;;;;;24.09;41.08;99943.06;12238720;19;20006;-82
2023/06/15 09:01:29;;;;;;;8.93;3.35;;;;;;;24.25;41.27;99950.94;12236954;19;20010;-82
2023/06/15 09:05:31;;;;;;;5.45;3.80;;;;;;;24.43;41.54;99946.91;12238482;19;20006;-84
2023/06/15 09:09:34;;;;;;;5.70;3.75;;;;;;;24.52;40.80;99949.66;12239389;19;20021;-83
2023/06/15 09:13:37;;;;;;;6.00;3.72;;;;;;;24.56;40.19;99940.19;12237246;19;20024;-84
2023/06/15 09:17:41;;;;;;;4.90;3.72;;;;;;;24.64;39.35;99938.50;12239493;19;20006;-84
2023/06/15 09:21:51;;;;;;;5.78;3.60;;;;;;;24.68;38.80;99933.81;12237244;19;20017;-83
2023/06/15 09:25:54;;;;;;;8.63;5.88;;;;;;;24.77;37.62;99934.56;12238641;19;20464;-86
2023/06/15 09:30:02;;;;;;;7.28;3.72;;;;;;;24.70;37.81;99934.31;12238448;19;20027;-84
2023/06/15 09:34:07;;;;;;;4.88;3.30;;;;;;;24.83;38.31;99929.56;12233916;19;20021;-85
2023/06/15 09:38:09;;;;;;;5.70;3.60;;;;;;;25.08;37.77;99932.53;12237559;19;20481;-83
2023/06/15 09:42:11;;;;;;;6.50;3.42;;;;;;;25.29;38.00;99932.56;12235060;19;20022;-84
2023/06/15 09:46:20;;;;;;;4.55;3.45;;;;;;;25.52;37.20;99922.56;12231042;19;20022;-85
2023/06/15 09:50:31;;;;;;;6.28;4.00;;;;;;;25.70;36.95;99920.38;12237005;19;20465;-85
2023/06/15 09:54:38;;;;;;;5.68;4.05;;;;;;;25.73;36.57;99922.50;12237230;19;20017;-82
2023/06/15 09:58:40;;;;;;;6.18;3.53;;;;;;;25.58;34.80;99929.63;12241135;19;20011;-84
2023/06/15 10:02:44;;;;;;;5.30;3.15;;;;;;;25.77;35.52;99931.06;12231143;19;20062;-83
2023/06/15 10:06:50;;;;;;;8.55;3.80;;;;;;;26.09;35.34;99929.41;12238125;19;20044;-85
2023/06/15 10:10:58;;;;;;;6.57;3.85;;;;;;;26.31;35.50;99930.94;12244258;19;20026;-84
2023/06/15 10:15:20;;;;;;;6.85;3.45;;;;;;;26.44;32.76;99931.75;12243893;19;20020;-84
2023/06/15 10:19:25;;;;;;;6.13;3.33;;;;;;;26.67;34.17;99924.47;12237498;19;20007;-84
2023/06/15 10:23:31;;;;;;;6.43;3.58;;;;;;;27.02;34.17;99912.63;12243008;19;20049;-85
2023/06/15 10:27:44;;;;;;;8.23;3.88;;;;;;;26.87;34.64;99922.66;12240093;19;20030;-84
2023/06/15 10:32:00;;;;;;;6.63;3.90;;;;;;;26.57;34.67;99922.94;12241822;19;20017;-85
2023/06/15 10:36:11;;;;;;;6.22;4.05;;;;;;;26.67;34.73;99913.16;12236166;19;20041;-86
2023/06/15 10:40:24;;;;;;;8.70;4.65;;;;;;;26.25;35.20;99916.22;12239351;19;20026;-85
2023/06/15 10:44:32;;;;;;;8.20;5.13;;;;;;;25.92;35.88;99914.31;12235242;19;20043;-85
2023/06/15 10:48:38;;;;;;;6.07;4.00;;;;;;;26.44;35.27;99911.97;12234540;19;20039;-85
2023/06/15 10:52:40;;;;;;;5.60;3.92;;;;;;;27.07;34.10;99906.72;12240365;19;20873;-84
2023/06/15 10:56:49;;;;;;;6.65;4.13;;;;;;;27.51;33.11;99901.09;12235052;19;20014;-82
2023/06/15 11:01:04;;;;;;;5.72;4.30;;;;;;;27.59;33.28;99896.47;12243586;19;20007;-85
2023/06/15 11:05:09;;;;;;;4.80;3.83;;;;;;;27.25;34.05;99907.28;12238583;19;20104;-90
2023/06/15 11:09:14;;;;;;;5.70;4.07;;;;;;;26.85;34.68;99908.06;12232543;19;20023;-85
2023/06/15 11:13:24;;;;;;;8.73;3.78;;;;;;;26.79;33.98;99903.84;12231485;19;20122;-85
2023/06/15 11:17:30;;;;;;;4.97;3.65;;;;;;;27.32;32.51;99892.50;12236433;19;20014;-87
2023/06/15 11:21:32;;;;;;;6.22;3.88;;;;;;;26.88;32.49;99895.22;12245607;19;20007;-86
2023/06/15 11:25:36;;;;;;;5.88;3.70;;;;;;;26.77;32.74;99901.38;12267245;19;20018;-83
2023/06/15 11:29:43;;;;;;;6.65;3.90;;;;;;;26.29;33.68;99897.38;12257529;19;19998;-87
2023/06/15 11:33:47;;;;;;;6.05;3.85;;;;;;;25.92;34.04;99893.72;12243654;19;20059;-86
2023/06/15 11:37:50;;;;;;;8.30;5.20;;;;;;;26.09;34.71;99892.69;12258987;19;20022;-87
2023/06/15 11:41:56;;;;;;;4.95;3.75;;;;;;;27.16;32.92;99879.13;12247143;19;20010;-86
2023/06/15 11:46:00;;;;;;;5.78;3.72;;;;;;;27.87;32.06;99879.44;12242635;19;20048;-87
2023/06/15 11:50:04;;;;;;;8.18;3.67;;;;;;;28.30;31.38;99866.38;12249216;19;20026;-84
2023/06/15 11:54:10;;;;;;;4.15;3.42;;;;;;;28.37;31.17;99875.84;12248994;19;20042;-86
2023/06/15 11:58:13;;;;;;;7.05;3.67;;;;;;;28.23;31.09;99863.34;12243733;19;20018;-85
2023/06/15 12:02:16;;;;;;;4.95;3.65;;;;;;;28.78;31.26;99867.91;12245283;19;20380;-86
2023/06/15 12:06:22;;;;;;;6.45;3.42;;;;;;;29.53;29.48;99857.28;12244308;19;20325;-85
2023/06/15 12:10:24;;;;;;;5.55;3.95;;;;;;;30.02;28.87;99852.94;12234622;19;20067;-85
2023/06/15 12:14:27;;;;;;;7.90;3.78;;;;;;;30.36;28.04;99849.03;12236995;19;20018;-87
2023/06/15 12:18:29;;;;;;;12.27;3.65;;;;;;;31.13;27.75;99848.88;12239589;19;20587;-85
2023/06/15 12:22:42;;;;;;;12.95;5.05;;;;;;;31.89;25.78;99843.63;12242562;19;20027;-85
2023/06/15 12:26:50;;;;;;;11.43;5.03;;;;;;;32.33;25.25;99851.31;12241602;19;20028;-88
2023/06/15 12:31:01;;;;;;;8.60;3.53;;;;;;;31.88;26.09;99849.69;12241657;19;20026;-87
2023/06/15 12:35:04;;;;;;;4.43;3.67;;;;;;;32.95;24.85;99839.06;12238342;19;20024;-86
2023/06/15 12:39:11;;;;;;;7.38;4.00;;;;;;;32.83;24.16;99839.41;12234458;19;20086;-85
2023/06/15 12:43:16;;;;;;;4.38;3.97;;;;;;;33.56;23.30;99825.84;12236707;19;20021;-84
2023/06/15 12:47:18;;;;;;;6.50;3.65;;;;;;;34.61;23.21;99824.59;12236406;19;20010;-86
2023/06/15 12:51:20;;;;;;;5.38;4.07;;;;;;;35.14;21.82;99820.75;12235260;19;20015;-88
2023/06/15 12:55:25;;;;;;;6.35;3.80;;;;;;;34.99;21.64;99824.06;12238953;19;20014;-86
2023/06/15 12:59:27;;;;;;;12.38;4.97;;;;;;;33.44;22.56;99817.63;12234106;19;20022;-87
2023/06/15 13:03:30;;;;;;;6.32;3.90;;;;;;;32.14;23.06;99815.34;12236403;19;20002;-86
2023/06/15 13:07:33;;;;;;;3.97;3.20;;;;;;;30.86;24.64;99815.63;12235719;19;20003;-85
2023/06/15 13:11:37;;;;;;;5.50;3.47;;;;;;;32.28;23.66;99805.25;12236591;19;20014;-88
2023/06/15 13:15:40;;;;;;;6.95;3.58;;;;;;;32.45;23.03;99801.72;12236549;19;20029;-87
2023/06/15 13:19:42;;;;;;;6.35;3.35;;;;;;;33.62;22.99;99811.97;12236639;19;20007;-86
2023/06/15 13:23:46;;;;;;;7.13;3.30;;;;;;;35.53;20.98;99811.09;12235284;19;20021;-87
2023/06/15 13:27:48;;;;;;;6.43;4.10;;;;;;;37.05;19.84;99803.50;12235230;19;20018;-85
2023/06/15 13:31:51;;;;;;;5.43;3.53;;;;;;;38.11;18.59;99790.81;12239441;19;20018;-86
2023/06/15 13:35:55;;;;;;;5.40;3.45;;;;;;;39.10;18.00;99789.28;12235477;19;20749;-87
2023/06/15 13:39:59;;;;;;;5.38;3.80;;;;;;;39.29;17.44;99799.97;12239410;19;20350;-86
2023/06/15 13:44:01;;;;;;;8.13;3.85;;;;;;;39.63;16.60;99784.38;12236475;19;20010;-83
2023/06/15 13:48:04;;;;;;;4.68;3.75;;;;;;;40.23;16.13;99789.88;12241419;19;20002;-84
2023/06/15 13:52:07;;;;;;;4.65;3.30;;;;;;;40.68;15.12;99775.41;12229604;19;20467;-87
2023/06/15 13:56:08;;;;;;;6.68;3.28;;;;;;;40.79;15.54;99780.88;12231840;19;20010;-86
2023/06/15 14:00:11;;;;;;;4.10;3.17;;;;;;;41.02;14.96;99776.06;12235655;19;20018;-87
2023/06/15 14:04:13;;;;;;;5.28;3.55;;;;;;;41.66;15.11;99757.53;12230201;19;20010;-87
2023/06/15 14:08:16;;;;;;;4.45;3.22;;;;;;;42.66;13.92;99753.19;12230611;19;20077;-88
2023/06/15 14:12:18;;;;;;;7.10;3.53;;;;;;;42.52;14.29;99748.72;12236254;19;20006;-91
2023/06/15 14:16:20;;;;;;;5.18;3.65;;;;;;;40.88;15.09;99752.13;12230963;19;20027;-87
2023/06/15 14:20:22;;;;;;;7.03;3.70;;;;;;;37.62;16.79;99753.00;12233162;19;20023;-88
2023/06/15 14:24:24;;;;;;;5.97;3.80;;;;;;;35.04;17.99;99757.75;12230938;19;20018;-87
2023/06/15 14:28:26;;;;;;;5.50;4.05;;;;;;;33.25;19.90;99752.31;12225092;19;20086;-86
2023/06/15 14:32:28;;;;;;;7.20;3.72;;;;;;;31.86;21.70;99752.38;12233138;19;20018;-85
2023/06/15 14:36:31;;;;;;;7.43;3.60;;;;;;;30.80;22.37;99760.28;12234742;19;20365;-85
2023/06/15 14:40:33;;;;;;;4.45;3.58;;;;;;;31.43;22.48;99757.72;12236795;19;20035;-87
2023/06/15 14:44:35;;;;;;;5.13;3.30;;;;;;;34.66;20.11;99746.09;12233061;19;20018;-85
2023/06/15 14:48:37;;;;;;;5.78;3.33;;;;;;;37.22;17.75;99744.19;12234873;19;20014;-86
2023/06/15 14:52:39;;;;;;;6.80;4.30;;;;;;;36.40;18.32;99737.41;12224497;19;20015;-85
2023/06/15 14:56:42;;;;;;;8.70;3.80;;;;;;;34.54;19.68;99755.97;12233841;19;20019;-88
2023/06/15 15:00:44;;;;;;;4.13;3.55;;;;;;;33.19;20.71;99746.19;12236143;19;20037;-86
2023/06/15 15:04:47;;;;;;;5.85;3.33;;;;;;;31.90;21.79;99753.28;12235532;19;20011;-87
2023/06/15 15:08:51;;;;;;;6.18;3.58;;;;;;;31.60;22.29;99751.38;12233341;19;20456;-86
2023/06/15 15:12:54;;;;;;;8.07;3.85;;;;;;;33.35;20.79;99749.47;12248216;19;20021;-86
2023/06/15 15:16:56;;;;;;;8.93;3.42;;;;;;;34.12;19.61;99751.97;12246968;19;20006;-87
2023/06/15 15:20:59;;;;;;;4.80;3.50;;;;;;;33.65;20.07;99747.50;12245201;19;20105;-87
2023/06/15 15:25:03;;;;;;;5.35;3.30;;;;;;;32.08;21.27;99745.66;12249623;19;20046;-86
2023/06/15 15:29:05;;;;;;;8.75;3.30;;;;;;;31.19;22.31;99756.25;12246365;19;20031;-85
2023/06/15 15:33:08;;;;;;;5.43;3.33;;;;;;;30.50;22.73;99743.22;12248803;19;20025;-87
2023/06/15 15:37:10;;;;;;;;;;;;;;;29.84;23.49;99748.34;12247043;19;20018;-87
2023/06/15 15:41:12;;;;;;;;;;;;;;;29.07;23.89;99746.56;12251901;19;19931;-85
2023/06/15 15:45:15;;;;;;;7.40;3.17;;;;;;;28.83;23.30;99736.38;12247134;19;19922;-84
2023/06/15 15:49:19;;;;;;;4.97;3.13;;;;;;;28.73;23.69;99734.94;12241525;19;20015;-84
2023/06/15 15:53:21;;;;;;;5.07;3.22;;;;;;;28.64;24.37;99734.34;12234240;19;20014;-86
2023/06/15 15:57:23;;;;;;;8.60;3.70;;;;;;;28.73;23.97;99729.25;12239805;19;20360;-86
2023/06/15 16:01:27;;;;;;;5.78;3.13;;;;;;;28.58;24.56;99727.34;12242337;19;20015;-85
2023/06/15 16:05:29;;;;;;;6.28;2.92;;;;;;;28.10;24.78;99732.34;12242820;19;20014;-85
2023/06/15 16:09:31;;;;;;;8.35;3.72;;;;;;;27.86;24.64;99719.25;12239757;19;20031;-83
2023/06/15 16:13:35;;;;;;;5.22;2.97;;;;;;;27.70;24.75;99711.56;12243772;19;20011;-83
2023/06/15 16:17:40;;;;;;;6.32;3.20;;;;;;;27.67;25.19;99708.66;12240662;19;20089;-86
2023/06/15 16:21:42;;;;;;;9.23;3.55;;;;;;;27.62;24.54;99709.75;12244150;19;20010;-85
2023/06/15 16:25:44;;;;;;;;;;;;;;;27.70;24.34;99708.75;12241926;19;20038;-86
2023/06/15 16:29:48;;;;;;;6.35;3.20;;;;;;;27.54;24.01;99712.78;12243511;19;20265;-83
2023/06/15 16:33:50;;;;;;;6.75;2.80;;;;;;;27.29;23.41;99715.00;12240533;19;21260;-84
2023/06/15 16:37:53;;;;;;;7.68;3.20;;;;;;;27.10;24.06;99716.50;12240959;19;20488;-86
2023/06/15 16:41:54;;;;;;;6.78;3.30;;;;;;;26.98;23.79;99708.91;12245231;19;20010;-85
2023/06/15 16:45:56;;;;;;;7.93;3.35;;;;;;;26.94;23.52;99707.16;12246376;19;20030;-86
2023/06/15 16:49:59;;;;;;;5.15;3.13;;;;;;;26.88;23.97;99715.09;12243114;19;20096;-87
2023/06/15 16:54:01;;;;;;;;;;;;;;;26.77;24.38;99714.81;12255047;19;20483;-86
2023/06/15 16:58:04;;;;;;;5.97;2.95;;;;;;;26.79;24.52;99709.59;12242572;19;19911;-86
2023/06/15 17:02:08;;;;;;;8.68;3.17;;;;;;;26.86;24.66;99717.47;12238462;19;20043;-86
2023/06/15 17:06:10;;;;;;;6.70;3.33;;;;;;;26.95;24.88;99720.09;12239754;19;20014;-87
2023/06/15 17:10:14;;;;;;;4.38;2.92;;;;;;;26.98;24.11;99725.03;12241428;19;20485;-87
2023/06/15 17:14:17;;;;;;;4.38;3.17;;;;;;;26.90;24.43;99726.88;12238610;19;20769;-85
2023/06/15 17:18:20;;;;;;;5.47;2.75;;;;;;;26.76;25.33;99727.28;12235705;19;20010;-87
2023/06/15 17:22:23;;;;;;;6.00;3.10;;;;;;;26.62;25.14;99729.69;12236369;19;20078;-88
2023/06/15 17:26:25;;;;;;;6.75;3.35;;;;;;;26.61;25.55;99739.38;12234273;19;20022;-87
2023/06/15 17:30:27;;;;;;;;;;;;;;;26.48;25.20;99738.56;12238125;19;20024;-87
2023/06/15 17:34:31;;;;;;;7.57;3.45;;;;;;;26.45;25.30;99744.13;12255942;19;19907;-85
2023/06/15 17:38:33;;;;;;;8.52;3.55;;;;;;;26.33;25.31;99733.69;12243330;19;20011;-86
2023/06/15 17:42:36;;;;;;;7.50;3.20;;;;;;;26.22;26.08;99743.81;12241470;19;20064;-88
2023/06/15 17:46:39;;;;;;;4.85;3.05;;;;;;;26.06;26.07;99740.91;12236622;19;20010;-86
2023/06/15 17:50:41;;;;;;;5.85;2.85;;;;;;;25.90;26.46;99749.28;12234592;19;20034;-86
2023/06/15 17:54:43;;;;;;;5.75;3.20;;;;;;;25.64;26.80;99741.97;12236731;19;20006;-86
2023/06/15 17:58:49;;;;;;;8.80;3.90;;;;;;;25.45;27.53;99750.19;12240325;19;20015;-88
2023/06/15 18:02:51;;;;;;;;;;;;;;;25.32;27.73;99740.91;12237245;19;20046;-87
2023/06/15 18:06:53;;;;;;;5.80;3.03;;;;;;;25.21;28.05;99743.34;12237417;19;19911;-82
2023/06/15 18:10:56;;;;;;;;;;;;;;;25.00;28.39;99751.84;12246344;19;20471;-83
2023/06/15 18:14:58;;;;;;;7.60;3.33;;;;;;;24.85;28.65;99754.50;12245666;19;20333;-82
2023/06/15 18:19:07;;;;;;;8.25;3.53;;;;;;;24.70;29.12;99753.97;12241947;19;20049;-82
2023/06/15 18:23:09;;;;;;;7.03;3.40;;;;;;;24.54;29.57;99752.97;12246296;19;20017;-82
2023/06/15 18:27:11;;;;;;;;;;;;;;;24.31;29.64;99749.66;12245565;19;20010;-85
2023/06/15 18:31:13;;;;;;;6.65;3.50;;;;;;;24.19;30.40;99752.41;12245657;19;19927;-84
2023/06/15 18:35:15;;;;;;;6.20;2.90;;;;;;;24.03;30.97;99757.78;12246352;19;20018;-84
2023/06/15 18:39:17;;;;;;;;;;;;;;;23.80;31.19;99760.09;12241540;19;20014;-84
2023/06/15 18:43:20;;;;;;;;;;;;;;;23.58;31.58;99761.16;12235367;19;19930;-85
2023/06/15 18:47:25;;;;;;;8.13;3.20;;;;;;;23.35;32.24;99766.22;12236781;19;19914;-85
2023/06/15 18:51:27;;;;;;;5.65;3.30;;;;;;;23.11;33.22;99767.66;12238550;19;20066;-86
2023/06/15 18:55:29;;;;;;;5.03;3.53;;;;;;;22.87;33.99;99756.91;12232407;19;20296;-86
2023/06/15 18:59:32;;;;;;;5.57;3.22;;;;;;;22.62;34.73;99767.03;12248050;19;20032;-85